Palmer, Pennsylvania
Current Conditions -  °F | °C
As of 9:51 AM on Thursday 18 Dec 2014 (Local Time) from KABE Reporting Station
Overcast Overcast  
Wind Chill: 29°   Ceiling: 4000
Heat Index: 37°   Visibility: 10mi
Dew Point: 20°   Wind: 12mph
Humidity: 50%   Direction: 310°NW
Pressure: 30.05"   Gusts: NA
Location:  40.6892°N, 75.2775°W
Report Text: KABE 181451Z 31010KT 10SM OVC040 03/M07 A3005 RMK AO2 SLP179 T00281067 51017
Loading
Personal Weather Stations






























Interactive Weather Map New forecast layout! Learn more

10-Day Weather Forecast

Advertisements
Track Severe Weather on mobile